Time;durP1;ratioP1;P1;durP2;ratioP2;P2;SDS_P1;SDS_P2;PMS_P1;PMS_P2;Temp;Humidity;BMP_temperature;BMP_pressure;BME280_temperature;BME280_humidity;BME280_pressure;Samples;Min_cycle;Max_cycle;Signal;HPM_P1;HPM_P2
2023/05/28 00:00:44;;;;;;;26.10;7.53;;;14.00;99.90;;;;;;4995666;28;20076;-67
2023/05/28 00:03:12;;;;;;;26.93;7.77;;;13.90;99.90;;;;;;4994174;28;20034;-67
2023/05/28 00:05:37;;;;;;;28.98;7.20;;;13.90;99.90;;;;;;4995392;28;20033;-68
2023/05/28 00:08:03;;;;;;;23.37;6.53;;;13.80;99.90;;;;;;4994901;28;20318;-67
2023/05/28 00:10:29;;;;;;;31.47;7.47;;;13.80;99.90;;;;;;4993336;28;20050;-67
2023/05/28 00:12:55;;;;;;;20.93;7.20;;;13.80;99.90;;;;;;4999440;28;20490;-67
2023/05/28 00:15:21;;;;;;;27.35;6.80;;;13.70;99.90;;;;;;4992637;28;20433;-75
2023/05/28 00:17:52;;;;;;;20.80;6.37;;;13.70;99.90;;;;;;4993082;28;20089;-68
2023/05/28 00:20:19;;;;;;;18.02;6.78;;;13.70;99.90;;;;;;4993713;28;20065;-67
2023/05/28 00:22:45;;;;;;;;;;;13.60;99.90;;;;;;4994881;28;20054;-68
2023/05/28 00:25:12;;;;;;;25.60;6.82;;;13.70;99.90;;;;;;4993047;28;19914;-67
2023/05/28 00:27:37;;;;;;;29.08;7.07;;;13.60;99.90;;;;;;4993248;28;20534;-67
2023/05/28 00:30:04;;;;;;;25.30;7.57;;;13.60;99.90;;;;;;4994343;28;20106;-67
2023/05/28 00:32:30;;;;;;;27.02;6.97;;;13.60;99.90;;;;;;4994913;28;20065;-68
2023/05/28 00:34:56;;;;;;;28.70;7.43;;;13.60;99.90;;;;;;4994260;28;20042;-67
2023/05/28 00:37:21;;;;;;;20.63;6.75;;;13.60;99.90;;;;;;4993345;28;20041;-67
2023/05/28 00:39:47;;;;;;;17.80;6.67;;;13.60;99.90;;;;;;4993450;28;20030;-67
2023/05/28 00:42:14;;;;;;;27.20;7.40;;;13.60;99.90;;;;;;4995088;28;20033;-67
2023/05/28 00:44:41;;;;;;;20.17;6.28;;;13.60;99.90;;;;;;4992830;28;20030;-67
2023/05/28 00:47:07;;;;;;;;;;;13.60;99.90;;;;;;4994926;28;20031;-67
2023/05/28 00:49:32;;;;;;;22.77;6.75;;;13.50;99.90;;;;;;4993388;28;19976;-74
2023/05/28 00:51:59;;;;;;;18.13;6.07;;;13.40;99.90;;;;;;4992312;28;20077;-67
2023/05/28 00:54:25;;;;;;;;;;;13.30;99.90;;;;;;4987757;28;20351;-69
2023/05/28 00:56:54;;;;;;;21.27;6.07;;;13.30;99.90;;;;;;4984116;28;19948;-67
2023/05/28 00:59:21;;;;;;;19.67;6.75;;;13.20;99.90;;;;;;4985594;28;20110;-67
2023/05/28 01:01:47;;;;;;;26.58;6.72;;;13.10;99.90;;;;;;4992957;28;20023;-67
2023/05/28 01:04:13;;;;;;;23.73;8.27;;;13.10;99.90;;;;;;4991717;28;20015;-74
2023/05/28 01:06:40;;;;;;;21.20;6.87;;;13.10;99.90;;;;;;4996015;28;20604;-67
2023/05/28 01:09:06;;;;;;;20.77;6.55;;;13.10;99.90;;;;;;4986291;28;20029;-67
2023/05/28 01:11:34;;;;;;;25.08;7.25;;;13.10;99.90;;;;;;4993011;28;20053;-67
2023/05/28 01:14:00;;;;;;;20.63;7.88;;;13.10;99.90;;;;;;4990781;28;20026;-67
2023/05/28 01:16:27;;;;;;;27.70;6.30;;;13.10;99.90;;;;;;4992030;28;20541;-67
2023/05/28 01:18:55;;;;;;;;;;;13.00;99.90;;;;;;4993642;28;20310;-67
2023/05/28 01:21:27;;;;;;;20.13;6.57;;;12.90;99.90;;;;;;4998401;28;20271;-74
2023/05/28 01:23:56;;;;;;;25.10;7.70;;;12.80;99.90;;;;;;5005518;28;20030;-67
2023/05/28 01:26:22;;;;;;;22.77;6.82;;;12.70;99.90;;;;;;4986957;28;20039;-67
2023/05/28 01:28:49;;;;;;;25.60;7.23;;;12.70;99.90;;;;;;5003177;28;20410;-75
2023/05/28 01:31:18;;;;;;;25.25;7.28;;;12.80;99.90;;;;;;4989362;28;20105;-66
2023/05/28 01:33:45;;;;;;;21.17;7.32;;;12.80;99.90;;;;;;4985998;28;20030;-67
2023/05/28 01:36:26;;;;;;;24.92;7.32;;;12.90;99.90;;;;;;4991224;28;20029;-67
2023/05/28 01:38:58;;;;;;;17.80;7.10;;;12.90;99.90;;;;;;4992484;28;20042;-67
2023/05/28 01:41:26;;;;;;;22.65;7.28;;;12.90;99.90;;;;;;4983603;28;20027;-67
2023/05/28 01:43:54;;;;;;;26.55;6.63;;;12.90;99.90;;;;;;4990562;28;20014;-68
2023/05/28 01:46:21;;;;;;;25.83;6.72;;;12.90;99.90;;;;;;4987167;28;20037;-67
2023/05/28 01:48:48;;;;;;;26.98;6.47;;;12.90;99.90;;;;;;4994931;28;20030;-66
2023/05/28 01:51:23;;;;;;;25.65;7.10;;;12.90;99.90;;;;;;4999045;28;20093;-74
2023/05/28 01:53:50;;;;;;;17.17;6.35;;;12.90;99.90;;;;;;4989875;28;20493;-67
2023/05/28 01:56:16;;;;;;;23.30;7.63;;;12.90;99.90;;;;;;4986770;28;20101;-66
2023/05/28 01:58:42;;;;;;;23.70;6.78;;;12.80;99.90;;;;;;5001686;28;20026;-74
2023/05/28 02:01:28;;;;;;;19.53;6.17;;;12.80;99.90;;;;;;5001761;28;20031;-66
2023/05/28 02:03:55;;;;;;;26.67;6.10;;;12.80;99.90;;;;;;4989508;28;20111;-67
2023/05/28 02:06:22;;;;;;;30.48;7.57;;;12.80;99.90;;;;;;4983438;28;20110;-67
2023/05/28 02:08:47;;;;;;;15.35;6.32;;;12.70;99.90;;;;;;4980285;28;20037;-67
2023/05/28 02:11:13;;;;;;;21.73;6.40;;;12.70;99.90;;;;;;4977075;28;20317;-68
2023/05/28 02:13:40;;;;;;;25.23;8.07;;;12.70;99.90;;;;;;4986782;28;20036;-74
2023/05/28 02:16:06;;;;;;;;;;;12.60;99.90;;;;;;4991857;28;20431;-67
2023/05/28 02:18:32;;;;;;;15.55;6.10;;;12.60;99.90;;;;;;4993392;28;19917;-66
2023/05/28 02:20:58;;;;;;;17.50;6.20;;;12.60;99.90;;;;;;4986730;28;20030;-66
2023/05/28 02:23:24;;;;;;;19.50;6.10;;;12.50;99.90;;;;;;4990943;28;20038;-78
2023/05/28 02:25:50;;;;;;;19.27;6.27;;;12.40;99.90;;;;;;4991138;28;20031;-66
2023/05/28 02:28:16;;;;;;;28.53;7.10;;;12.40;99.90;;;;;;4997200;28;20038;-66
2023/05/28 02:30:42;;;;;;;22.20;6.70;;;12.40;99.90;;;;;;4988548;28;20039;-66
2023/05/28 02:33:08;;;;;;;25.83;7.37;;;12.40;99.90;;;;;;4996840;28;20322;-66
2023/05/28 02:35:34;;;;;;;21.90;7.10;;;12.40;99.90;;;;;;4996239;28;20026;-66
2023/05/28 02:38:00;;;;;;;26.17;6.80;;;12.40;99.90;;;;;;4996499;28;20362;-66
2023/05/28 02:40:26;;;;;;;20.33;8.10;;;12.40;99.90;;;;;;4982744;28;20106;-68
2023/05/28 02:42:52;;;;;;;31.20;7.07;;;12.40;99.90;;;;;;4994549;28;20313;-66
2023/05/28 02:45:17;;;;;;;16.37;6.37;;;12.40;99.90;;;;;;5010937;28;20030;-66
2023/05/28 02:47:43;;;;;;;19.70;6.63;;;12.40;99.90;;;;;;4983177;28;20034;-66
2023/05/28 02:50:09;;;;;;;26.90;7.33;;;12.40;99.90;;;;;;5011994;28;20030;-66
2023/05/28 02:52:35;;;;;;;19.80;6.18;;;12.40;99.90;;;;;;4985225;28;20022;-66
2023/05/28 02:55:02;;;;;;;19.87;5.87;;;12.40;99.90;;;;;;4986605;28;20058;-67
2023/05/28 02:57:28;;;;;;;20.17;6.85;;;12.50;99.90;;;;;;4991721;28;20023;-73
2023/05/28 02:59:53;;;;;;;29.27;6.87;;;12.50;99.90;;;;;;5011808;28;20303;-67
2023/05/28 03:02:19;;;;;;;16.90;6.30;;;12.50;99.90;;;;;;4993502;28;20067;-66
2023/05/28 03:04:45;;;;;;;24.17;7.20;;;12.50;99.90;;;;;;4995592;28;20026;-66
2023/05/28 03:07:11;;;;;;;20.83;6.50;;;12.40;99.90;;;;;;4996142;28;20094;-74
2023/05/28 03:09:37;;;;;;;21.30;6.37;;;12.40;99.90;;;;;;5010745;28;20037;-67
2023/05/28 03:12:03;;;;;;;21.73;7.20;;;12.50;99.90;;;;;;4995991;28;20026;-66
2023/05/28 03:14:28;;;;;;;27.33;6.10;;;12.50;99.90;;;;;;4976688;28;20049;-67
2023/05/28 03:16:54;;;;;;;23.63;7.63;;;12.50;99.90;;;;;;4976045;28;20296;-66
2023/05/28 03:19:20;;;;;;;23.87;6.23;;;12.50;99.90;;;;;;4986983;28;20045;-66
2023/05/28 03:21:46;;;;;;;20.97;6.90;;;12.50;99.90;;;;;;4994363;28;20032;-66
2023/05/28 03:24:12;;;;;;;17.30;7.00;;;12.50;99.90;;;;;;4992729;28;20034;-74
2023/05/28 03:26:38;;;;;;;24.27;6.93;;;12.50;99.90;;;;;;4993720;28;20582;-67
2023/05/28 03:29:03;;;;;;;29.70;7.00;;;12.50;99.90;;;;;;4988252;28;20041;-67
2023/05/28 03:31:30;;;;;;;18.97;7.33;;;12.50;99.90;;;;;;4987947;28;20031;-66
2023/05/28 03:33:56;;;;;;;18.20;6.10;;;12.50;99.90;;;;;;4993749;28;20101;-70
2023/05/28 03:36:24;;;;;;;18.10;7.23;;;12.60;99.90;;;;;;4985788;28;20422;-67
2023/05/28 03:38:50;;;;;;;30.80;6.38;;;12.60;99.90;;;;;;4995086;28;20022;-66
2023/05/28 03:41:16;;;;;;;25.20;6.77;;;12.60;99.90;;;;;;4995794;28;20113;-66
2023/05/28 03:43:41;;;;;;;59.13;8.67;;;12.60;99.90;;;;;;4994039;28;20030;-66
2023/05/28 03:46:08;;;;;;;28.83;7.23;;;12.60;99.90;;;;;;4976462;28;20038;-66
2023/05/28 03:48:33;;;;;;;25.00;6.38;;;12.60;99.90;;;;;;4984135;28;20058;-66
2023/05/28 03:51:00;;;;;;;31.93;7.70;;;12.60;99.90;;;;;;4994131;28;20062;-67
2023/05/28 03:53:26;;;;;;;27.48;7.20;;;12.50;99.90;;;;;;5002866;28;20034;-66
2023/05/28 03:55:52;;;;;;;32.67;7.70;;;12.50;99.90;;;;;;4992027;28;20035;-67
2023/05/28 03:58:18;;;;;;;22.40;7.43;;;12.40;99.90;;;;;;4984918;28;20544;-67
2023/05/28 04:00:44;;;;;;;17.90;6.35;;;12.40;99.90;;;;;;4997914;28;20402;-66
2023/05/28 04:03:10;;;;;;;39.70;7.70;;;12.50;99.90;;;;;;4994537;28;20109;-67
2023/05/28 04:05:35;;;;;;;19.43;6.33;;;12.50;99.90;;;;;;4975844;28;20046;-67
2023/05/28 04:08:02;;;;;;;27.03;6.50;;;12.40;99.90;;;;;;4976602;28;20086;-75
2023/05/28 04:10:28;;;;;;;21.92;5.90;;;12.30;99.90;;;;;;4993734;28;20026;-67
2023/05/28 04:12:54;;;;;;;13.23;5.43;;;12.40;99.90;;;;;;4992733;28;20041;-66
2023/05/28 04:15:20;;;;;;;;;;;12.40;99.90;;;;;;4993426;28;20045;-66
2023/05/28 04:17:46;;;;;;;20.45;4.90;;;12.40;99.90;;;;;;4987126;28;19918;-66
2023/05/28 04:20:12;;;;;;;12.93;4.47;;;12.50;99.90;;;;;;4985712;28;20290;-67
2023/05/28 04:22:37;;;;;;;10.33;5.03;;;12.50;99.90;;;;;;4997138;28;20310;-66
2023/05/28 04:25:04;;;;;;;24.33;5.43;;;12.50;99.90;;;;;;4995390;28;20369;-76
2023/05/28 04:27:30;;;;;;;17.83;4.78;;;12.50;99.90;;;;;;4988799;28;20053;-67
2023/05/28 04:29:56;;;;;;;8.27;3.28;;;12.60;99.90;;;;;;4989844;28;20043;-67
2023/05/28 04:32:23;;;;;;;9.57;3.25;;;12.60;99.90;;;;;;4987751;28;20062;-67
2023/05/28 04:34:54;;;;;;;;;;;12.70;99.90;;;;;;4980324;28;20026;-68
2023/05/28 04:37:21;;;;;;;8.43;3.90;;;12.70;99.90;;;;;;4990863;28;19917;-67
2023/05/28 04:39:48;;;;;;;11.43;3.03;;;12.70;99.90;;;;;;4994579;28;20042;-66
2023/05/28 04:42:16;;;;;;;8.95;2.88;;;12.80;99.90;;;;;;4995315;28;20440;-77
2023/05/28 04:44:45;;;;;;;7.68;2.25;;;12.80;99.90;;;;;;5008827;28;20030;-67
2023/05/28 04:47:12;;;;;;;7.68;2.78;;;12.90;99.90;;;;;;4994276;28;20493;-67
2023/05/28 04:49:40;;;;;;;7.80;1.83;;;12.90;99.90;;;;;;4993428;28;20045;-75
2023/05/28 04:52:06;;;;;;;2.90;1.85;;;12.90;99.90;;;;;;4990253;28;20052;-67
2023/05/28 04:54:32;;;;;;;1.33;1.02;;;12.90;99.90;;;;;;4994687;28;20422;-66
2023/05/28 04:56:58;;;;;;;7.70;3.70;;;12.90;99.90;;;;;;4994232;28;20030;-67
2023/05/28 04:59:24;;;;;;;3.50;1.73;;;12.90;99.90;;;;;;5015363;28;20018;-67
2023/05/28 05:01:49;;;;;;;11.50;2.67;;;12.90;99.90;;;;;;5013426;28;20061;-66
2023/05/28 05:04:15;;;;;;;9.83;2.63;;;12.90;99.90;;;;;;4998998;28;20031;-66
2023/05/28 05:06:42;;;;;;;4.77;1.90;;;13.10;99.90;;;;;;4995837;28;20022;-66
2023/05/28 05:09:08;;;;;;;6.30;2.60;;;13.10;99.90;;;;;;4988214;28;20257;-67
2023/05/28 05:11:34;;;;;;;14.67;1.63;;;13.20;99.90;;;;;;4995259;28;20030;-68
2023/05/28 05:14:00;;;;;;;3.92;2.78;;;13.20;99.90;;;;;;4998155;28;20303;-67
2023/05/28 05:16:26;;;;;;;4.03;1.63;;;13.30;99.90;;;;;;4988876;28;20074;-72
2023/05/28 05:18:52;;;;;;;9.00;2.60;;;13.30;99.90;;;;;;4992075;28;20408;-67
2023/05/28 05:21:17;;;;;;;7.87;1.87;;;13.40;99.90;;;;;;4997171;28;20272;-67
2023/05/28 05:23:43;;;;;;;4.03;2.13;;;13.40;99.90;;;;;;4983849;28;20369;-67
2023/05/28 05:26:12;;;;;;;8.23;2.57;;;13.40;99.90;;;;;;4999199;28;20040;-67
2023/05/28 05:28:39;;;;;;;10.90;2.60;;;13.40;99.90;;;;;;5015545;28;20375;-67
2023/05/28 05:31:05;;;;;;;7.53;2.33;;;13.50;99.90;;;;;;4996795;28;20085;-67
2023/05/28 05:33:30;;;;;;;13.40;3.13;;;13.60;99.90;;;;;;4997241;28;20026;-67
2023/05/28 05:35:56;;;;;;;7.77;2.03;;;13.60;99.90;;;;;;4997963;28;20054;-67
2023/05/28 05:38:22;;;;;;;5.90;2.30;;;13.60;99.90;;;;;;5013115;28;20405;-66
2023/05/28 05:40:48;;;;;;;8.50;2.03;;;13.60;99.90;;;;;;4996856;28;20023;-67
2023/05/28 05:43:14;;;;;;;6.25;2.70;;;13.70;99.90;;;;;;4989025;28;20031;-67
2023/05/28 05:45:40;;;;;;;11.13;2.13;;;13.70;99.90;;;;;;4997124;28;20065;-67
2023/05/28 05:48:06;;;;;;;9.85;2.17;;;13.80;99.90;;;;;;5004185;28;20101;-66
2023/05/28 05:50:32;;;;;;;2.90;2.10;;;13.90;99.90;;;;;;4993859;28;20035;-76
2023/05/28 05:52:59;;;;;;;7.53;1.50;;;13.90;99.90;;;;;;4991153;28;20468;-67
2023/05/28 05:55:25;;;;;;;4.22;1.80;;;13.90;99.90;;;;;;4991447;28;20080;-66
2023/05/28 05:57:51;;;;;;;10.07;2.78;;;13.90;99.90;;;;;;4997282;28;20046;-67
2023/05/28 06:00:17;;;;;;;6.70;2.43;;;14.00;99.90;;;;;;4995667;28;20065;-66
2023/05/28 06:02:43;;;;;;;2.40;1.60;;;14.00;99.90;;;;;;4997729;28;20018;-69
2023/05/28 06:05:09;;;;;;;5.13;2.43;;;14.00;99.90;;;;;;4978180;28;20065;-67
2023/05/28 06:07:35;;;;;;;4.47;2.53;;;14.00;99.90;;;;;;4989620;28;20414;-77
2023/05/28 06:10:01;;;;;;;12.73;2.97;;;14.00;99.90;;;;;;5008293;28;20021;-67
2023/05/28 06:12:27;;;;;;;4.20;1.90;;;14.00;99.90;;;;;;4986609;28;20080;-67
2023/05/28 06:14:53;;;;;;;2.10;1.60;;;14.10;99.90;;;;;;4990386;28;20034;-67
2023/05/28 06:17:18;;;;;;;5.57;2.50;;;14.10;99.90;;;;;;5004378;28;20433;-66
2023/05/28 06:19:44;;;;;;;5.33;2.03;;;14.20;99.90;;;;;;4985271;28;20027;-67
2023/05/28 06:22:10;;;;;;;3.80;1.87;;;14.30;99.90;;;;;;4997568;28;20018;-67
2023/05/28 06:24:38;;;;;;;6.30;2.92;;;14.30;99.90;;;;;;4989554;28;20031;-76
2023/05/28 06:27:05;;;;;;;4.20;2.20;;;14.30;99.90;;;;;;4987026;28;20026;-67
2023/05/28 06:29:30;;;;;;;3.47;2.05;;;14.40;99.90;;;;;;4983945;28;20333;-67
2023/05/28 06:31:56;;;;;;;7.10;2.47;;;14.40;99.90;;;;;;4989022;28;20041;-68
2023/05/28 06:34:22;;;;;;;4.20;2.40;;;14.50;99.90;;;;;;4990912;28;20027;-66
2023/05/28 06:36:48;;;;;;;3.27;2.13;;;14.50;99.90;;;;;;4991177;28;20347;-67
2023/05/28 06:39:14;;;;;;;4.93;2.13;;;14.60;99.90;;;;;;4996807;28;20037;-67
2023/05/28 06:41:40;;;;;;;10.73;2.97;;;14.60;99.90;;;;;;4986435;28;20406;-74
2023/05/28 06:44:06;;;;;;;7.47;1.73;;;14.60;99.90;;;;;;4989664;28;20648;-68
2023/05/28 06:46:32;;;;;;;3.65;2.40;;;14.70;99.90;;;;;;4989537;28;20038;-68
2023/05/28 06:48:58;;;;;;;7.22;1.92;;;14.80;99.90;;;;;;4982049;28;20046;-67
2023/05/28 06:51:24;;;;;;;5.80;2.50;;;14.90;99.90;;;;;;4994962;28;20034;-68
2023/05/28 06:53:50;;;;;;;5.57;2.38;;;14.90;99.90;;;;;;4996460;28;20053;-67
2023/05/28 06:56:17;;;;;;;7.70;2.15;;;15.00;99.90;;;;;;4979914;28;20049;-67
2023/05/28 06:58:43;;;;;;;8.73;1.42;;;14.90;99.90;;;;;;4990165;28;20068;-68
2023/05/28 07:01:09;;;;;;;10.45;2.40;;;15.00;99.90;;;;;;4994613;28;20356;-68
2023/05/28 07:03:35;;;;;;;5.90;2.17;;;15.00;99.90;;;;;;4987750;28;20031;-67
2023/05/28 07:06:01;;;;;;;5.55;2.30;;;15.00;99.90;;;;;;4992174;28;20410;-67
2023/05/28 07:08:27;;;;;;;8.23;1.47;;;15.10;99.90;;;;;;4989911;28;20034;-69
2023/05/28 07:10:52;;;;;;;2.83;1.50;;;15.20;99.90;;;;;;4985556;28;20268;-67
2023/05/28 07:13:18;;;;;;;9.13;1.67;;;15.20;99.90;;;;;;4989892;28;20105;-67
2023/05/28 07:15:44;;;;;;;2.23;1.40;;;15.40;99.90;;;;;;4981848;28;20090;-67
2023/05/28 07:18:10;;;;;;;5.22;1.85;;;15.40;99.90;;;;;;4986053;28;20023;-67
2023/05/28 07:20:36;;;;;;;3.73;1.70;;;15.50;99.90;;;;;;4990855;28;20023;-66
2023/05/28 07:23:02;;;;;;;6.97;2.33;;;15.60;99.90;;;;;;5006515;28;20026;-74
2023/05/28 07:25:28;;;;;;;5.25;2.00;;;15.60;99.90;;;;;;5009703;28;20112;-67
2023/05/28 07:27:54;;;;;;;7.13;2.23;;;15.60;99.90;;;;;;4995570;28;20038;-67
2023/05/28 07:30:20;;;;;;;5.72;2.13;;;15.70;99.90;;;;;;5009260;28;20108;-66
2023/05/28 07:32:46;;;;;;;7.67;1.90;;;15.80;99.90;;;;;;4988716;28;20745;-66
2023/05/28 07:35:11;;;;;;;2.67;1.53;;;15.90;99.90;;;;;;4982919;28;20023;-69
2023/05/28 07:37:38;;;;;;;9.77;2.23;;;15.90;99.90;;;;;;4989921;28;20350;-67
2023/05/28 07:40:05;;;;;;;3.38;1.38;;;15.90;99.90;;;;;;4981286;28;21791;-67
2023/05/28 07:42:30;;;;;;;;;;;15.80;99.90;;;;;;4985827;28;20481;-67
2023/05/28 07:44:56;;;;;;;3.10;1.37;;;15.90;99.90;;;;;;4995526;28;20009;-67
2023/05/28 07:47:22;;;;;;;11.67;2.90;;;16.00;99.90;;;;;;4983389;28;20366;-66
2023/05/28 07:49:48;;;;;;;7.13;2.73;;;16.10;99.90;;;;;;4982170;28;20026;-66
2023/05/28 07:52:14;;;;;;;5.17;1.20;;;16.10;99.90;;;;;;4988944;28;20061;-75
2023/05/28 07:54:40;;;;;;;5.83;1.37;;;16.10;99.90;;;;;;4982085;28;20288;-67
2023/05/28 07:57:06;;;;;;;9.37;2.83;;;16.10;99.90;;;;;;4999825;28;20484;-67
2023/05/28 07:59:32;;;;;;;6.10;1.93;;;16.30;99.90;;;;;;5003312;28;20413;-67
2023/05/28 08:01:57;;;;;;;3.45;1.50;;;16.40;99.90;;;;;;5004741;28;20560;-68
2023/05/28 08:04:23;;;;;;;5.10;2.30;;;16.40;99.90;;;;;;4984242;28;20113;-67
2023/05/28 08:06:49;;;;;;;5.93;1.57;;;16.40;99.90;;;;;;4980945;28;20034;-67
2023/05/28 08:09:17;;;;;;;5.00;2.03;;;16.40;99.90;;;;;;4992076;28;20326;-67
2023/05/28 08:11:44;;;;;;;2.55;1.50;;;16.50;99.90;;;;;;4984577;28;20027;-67
2023/05/28 08:14:10;;;;;;;7.57;2.33;;;16.40;99.90;;;;;;4976227;28;20086;-67
2023/05/28 08:16:36;;;;;;;2.53;1.33;;;16.50;99.90;;;;;;4991068;28;20043;-67
2023/05/28 08:19:02;;;;;;;8.15;2.40;;;16.60;99.90;;;;;;4983626;28;20042;-68
2023/05/28 08:21:27;;;;;;;11.87;1.77;;;16.60;99.90;;;;;;5001333;28;21559;-68
2023/05/28 08:23:55;;;;;;;5.50;1.37;;;16.70;99.90;;;;;;4993881;28;20026;-67
2023/05/28 08:26:21;;;;;;;11.88;2.10;;;16.70;99.90;;;;;;5000391;28;20440;-67
2023/05/28 08:28:47;;;;;;;5.25;1.58;;;16.70;99.90;;;;;;5005737;28;20068;-68
2023/05/28 08:31:13;;;;;;;3.10;1.13;;;16.80;99.90;;;;;;5019601;28;20038;-67
2023/05/28 08:33:38;;;;;;;1.77;1.17;;;16.90;99.90;;;;;;4993771;28;20307;-68
2023/05/28 08:36:06;;;;;;;7.60;2.17;;;16.80;99.90;;;;;;5000447;28;20421;-74
2023/05/28 08:38:32;;;;;;;5.10;2.10;;;16.80;99.90;;;;;;5001712;28;20027;-67
2023/05/28 08:40:59;;;;;;;13.53;3.20;;;16.90;99.90;;;;;;4999482;28;20037;-67
2023/05/28 08:43:24;;;;;;;;;;;17.00;99.90;;;;;;4995157;28;20421;-68
2023/05/28 08:45:53;;;;;;;13.55;1.23;;;16.90;99.90;;;;;;5002603;28;19912;-68
2023/05/28 08:48:20;;;;;;;5.88;1.50;;;16.80;99.90;;;;;;5001781;28;20027;-67
2023/05/28 08:50:50;;;;;;;4.60;1.20;;;16.80;99.90;;;;;;4997241;28;20033;-68
2023/05/28 08:53:20;;;;;;;4.53;1.85;;;16.80;99.90;;;;;;5001141;28;20101;-75
2023/05/28 08:55:46;;;;;;;4.72;1.63;;;16.80;99.90;;;;;;4997171;28;20057;-68
2023/05/28 08:58:13;;;;;;;12.27;3.00;;;16.70;99.90;;;;;;4996035;28;20053;-67
2023/05/28 09:00:40;;;;;;;;;;;16.70;99.90;;;;;;4994807;28;20108;-75
2023/05/28 09:03:07;;;;;;;;;;;16.80;99.90;;;;;;5005166;28;20417;-68
2023/05/28 09:05:37;;;;;;;4.10;1.25;;;16.80;99.90;;;;;;4991523;28;19916;-68
2023/05/28 09:08:08;;;;;;;4.35;1.92;;;16.90;99.90;;;;;;4980273;28;20023;-67
2023/05/28 09:10:37;;;;;;;2.80;1.35;;;16.90;99.90;;;;;;4979633;28;20019;-69
2023/05/28 09:13:04;;;;;;;10.48;2.10;;;16.90;99.90;;;;;;4988384;28;20046;-76
2023/05/28 09:15:30;;;;;;;5.40;2.00;;;16.80;99.90;;;;;;4975978;28;20506;-66
2023/05/28 09:17:59;;;;;;;2.08;1.83;;;16.90;99.90;;;;;;4991202;28;20637;-75
2023/05/28 09:20:25;;;;;;;7.53;1.65;;;16.80;99.90;;;;;;4977432;28;20414;-67
2023/05/28 09:23:06;;;;;;;5.38;2.35;;;16.80;99.90;;;;;;4989780;28;20078;-73
2023/05/28 09:25:35;;;;;;;1.95;1.50;;;17.00;99.90;;;;;;4994357;28;20026;-73
2023/05/28 09:28:02;;;;;;;4.32;1.95;;;17.10;99.90;;;;;;4986838;28;20105;-74
2023/05/28 09:30:31;;;;;;;;;;;17.20;99.90;;;;;;4987618;28;20052;-67
2023/05/28 09:33:07;;;;;;;2.83;1.50;;;17.20;99.90;;;;;;4987635;28;19999;-68
2023/05/28 09:35:35;;;;;;;5.38;2.58;;;17.20;99.90;;;;;;4985272;28;20654;-67
2023/05/28 09:38:07;;;;;;;4.53;1.45;;;17.30;99.90;;;;;;4981372;28;20078;-67
2023/05/28 09:40:41;;;;;;;3.58;1.30;;;17.20;99.90;;;;;;4983973;28;20024;-67
2023/05/28 09:43:30;;;;;;;6.20;2.47;;;17.10;99.90;;;;;;4980220;28;20025;-67
2023/05/28 09:46:09;;;;;;;4.15;1.52;;;17.10;99.90;;;;;;4981973;28;20035;-67
2023/05/28 09:48:35;;;;;;;5.93;3.15;;;17.10;99.90;;;;;;4981500;28;20038;-68
2023/05/28 09:51:04;;;;;;;5.90;2.45;;;17.10;99.90;;;;;;4984933;28;20358;-70
2023/05/28 09:53:36;;;;;;;6.00;1.92;;;17.00;99.90;;;;;;4981012;28;20034;-68
2023/05/28 09:56:03;;;;;;;6.75;2.85;;;17.20;99.90;;;;;;4981295;28;20023;-67
2023/05/28 09:58:36;;;;;;;3.53;2.15;;;17.10;99.90;;;;;;4981345;28;20054;-68
2023/05/28 10:01:09;;;;;;;3.38;1.67;;;16.90;99.90;;;;;;4988913;28;20023;-68
2023/05/28 10:03:38;;;;;;;4.20;2.03;;;17.10;99.90;;;;;;4986103;28;20034;-67
2023/05/28 10:06:10;;;;;;;4.25;2.40;;;17.20;99.90;;;;;;4984915;28;20186;-69
2023/05/28 10:08:38;;;;;;;6.70;2.72;;;17.30;99.90;;;;;;4983969;28;20117;-67
2023/05/28 10:11:12;;;;;;;3.80;2.33;;;17.30;99.90;;;;;;4991817;28;20088;-68
2023/05/28 10:13:40;;;;;;;3.00;1.55;;;17.30;99.90;;;;;;4999045;28;20383;-69
2023/05/28 10:16:06;;;;;;;6.85;2.50;;;17.30;99.90;;;;;;5012019;28;20050;-68
2023/05/28 10:18:33;;;;;;;2.20;2.00;;;17.30;99.90;;;;;;4997765;28;20104;-75
2023/05/28 10:20:59;;;;;;;3.97;2.58;;;17.40;99.90;;;;;;4999596;28;20031;-68
2023/05/28 10:23:26;;;;;;;5.00;3.23;;;17.40;99.90;;;;;;5000236;28;20026;-68
2023/05/28 10:25:53;;;;;;;6.68;1.85;;;17.40;99.90;;;;;;4999935;28;20039;-69
2023/05/28 10:28:21;;;;;;;7.32;2.33;;;17.50;99.90;;;;;;4999420;28;20034;-74
2023/05/28 10:31:06;;;;;;;2.70;1.55;;;17.60;99.90;;;;;;5002935;28;20030;-68
2023/05/28 10:33:38;;;;;;;2.83;1.42;;;17.50;99.90;;;;;;4998614;28;20062;-67
2023/05/28 10:36:08;;;;;;;5.60;2.38;;;17.50;99.90;;;;;;5000547;28;20041;-67
2023/05/28 10:38:44;;;;;;;7.88;2.20;;;17.60;99.90;;;;;;4997600;28;20023;-67
2023/05/28 10:41:10;;;;;;;15.70;2.78;;;17.90;99.90;;;;;;5001017;28;20045;-67
2023/05/28 10:43:39;;;;;;;10.63;2.83;;;18.10;99.90;;;;;;4999791;28;20042;-74
2023/05/28 10:46:17;;;;;;;7.63;1.27;;;18.10;99.90;;;;;;5002332;28;20030;-67
2023/05/28 10:49:12;;;;;;;7.45;2.30;;;18.10;99.90;;;;;;4998821;28;20027;-67
2023/05/28 10:51:57;;;;;;;5.90;1.70;;;18.20;99.90;;;;;;5014966;28;20751;-68
2023/05/28 10:54:29;;;;;;;6.22;1.98;;;18.20;99.90;;;;;;4999228;28;20362;-68
2023/05/28 10:57:23;;;;;;;3.92;2.00;;;18.30;99.90;;;;;;4999822;28;20370;-68
